createdAt,value
2023-04-24T00:00:07.960Z,9.6
2023-04-24T00:05:08.564Z,9.6
2023-04-24T00:10:08.630Z,9.8
2023-04-24T00:15:08.722Z,9.8
2023-04-24T00:20:08.787Z,9.8
2023-04-24T00:25:08.838Z,9.8
2023-04-24T00:30:08.938Z,9.8
2023-04-24T00:35:07.989Z,9.8
2023-04-24T00:40:08.015Z,9.8
2023-04-24T00:45:08.053Z,9.8
2023-04-24T00:50:08.145Z,9.8
2023-04-24T00:55:08.192Z,9.6
2023-04-24T01:00:08.285Z,9.6
2023-04-24T01:05:08.253Z,9.8
2023-04-24T01:10:08.299Z,9.8
2023-04-24T01:15:08.340Z,9.8
2023-04-24T01:20:08.370Z,9.8
2023-04-24T01:25:08.423Z,9.8
2023-04-24T01:30:08.473Z,9.8
2023-04-24T01:35:08.503Z,9.6
2023-04-24T01:40:08.548Z,9.3
2023-04-24T01:45:08.596Z,9.3
2023-04-24T01:50:08.638Z,9.0
2023-04-24T01:55:08.721Z,9.1
2023-04-24T02:00:08.800Z,9.0
2023-04-24T02:05:08.873Z,9.0
2023-04-24T02:10:08.945Z,8.8
2023-04-24T02:15:08.019Z,9.0
2023-04-24T02:20:08.112Z,9.0
2023-04-24T02:25:08.146Z,8.5
2023-04-24T02:30:08.225Z,8.8
2023-04-24T02:35:08.299Z,9.0
2023-04-24T02:40:08.419Z,8.8
2023-04-24T02:45:08.469Z,8.6
2023-04-24T02:50:08.507Z,8.8
2023-04-24T02:55:08.572Z,8.6
2023-04-24T03:00:08.570Z,8.6
2023-04-24T03:05:08.612Z,8.6
2023-04-24T03:10:08.633Z,8.8
2023-04-24T03:15:08.666Z,8.8
2023-04-24T03:20:08.739Z,8.8
2023-04-24T03:25:08.782Z,8.8
2023-04-24T03:30:08.843Z,8.6
2023-04-24T03:35:08.902Z,8.6
2023-04-24T03:40:08.980Z,8.6
2023-04-24T03:45:08.023Z,8.6
2023-04-24T03:50:08.115Z,8.6
2023-04-24T03:55:08.194Z,8.8
2023-04-24T04:00:08.273Z,8.8
2023-04-24T04:05:02.696Z,8.8
2023-04-24T04:10:02.862Z,8.8
2023-04-24T04:15:02.992Z,9.0
2023-04-24T04:20:02.115Z,8.8
2023-04-24T04:25:02.261Z,8.8
2023-04-24T04:30:02.924Z,8.8
2023-04-24T04:35:02.119Z,8.8
2023-04-24T04:40:02.368Z,8.8
2023-04-24T04:45:02.513Z,8.3
2023-04-24T04:50:02.612Z,8.6
2023-04-24T04:55:02.878Z,8.6
2023-04-24T05:00:03.018Z,8.6
2023-04-24T05:05:02.264Z,8.8
2023-04-24T05:10:02.422Z,8.8
2023-04-24T05:15:02.579Z,8.6
2023-04-24T05:20:02.717Z,8.6
2023-04-24T05:25:02.951Z,8.5
2023-04-24T05:30:02.089Z,8.1
2023-04-24T05:35:02.274Z,8.0
2023-04-24T05:40:02.497Z,7.9
2023-04-24T05:45:02.861Z,7.6
2023-04-24T05:50:03.041Z,8.1
2023-04-24T05:55:02.260Z,8.3
2023-04-24T06:00:02.412Z,8.5
2023-04-24T06:05:02.874Z,8.6
2023-04-24T06:10:02.263Z,8.6
2023-04-24T06:15:02.387Z,8.8
2023-04-24T06:20:02.638Z,8.6
2023-04-24T06:25:02.758Z,8.5
2023-04-24T06:30:02.910Z,8.3
2023-04-24T06:35:03.046Z,8.0
2023-04-24T06:40:02.240Z,8.0
2023-04-24T06:45:02.357Z,8.0
2023-04-24T06:50:02.597Z,7.9
2023-04-24T06:55:02.737Z,7.9
2023-04-24T07:00:02.992Z,7.6
2023-04-24T07:05:02.105Z,8.0
2023-04-24T07:10:02.248Z,8.1
2023-04-24T07:15:02.352Z,7.9
2023-04-24T07:20:02.606Z,7.9
2023-04-24T07:25:02.857Z,7.5
2023-04-24T07:30:02.976Z,7.9
2023-04-24T07:35:02.149Z,8.3
2023-04-24T07:40:02.404Z,8.0
2023-04-24T07:45:02.628Z,8.0
2023-04-24T07:50:02.824Z,8.1
2023-04-24T07:55:02.970Z,8.1
2023-04-24T08:00:02.155Z,7.9
2023-04-24T08:05:02.785Z,8.1
2023-04-24T08:10:02.169Z,8.1
2023-04-24T08:15:02.421Z,8.1
2023-04-24T08:20:02.827Z,8.6
2023-04-24T08:25:02.194Z,8.6
2023-04-24T08:30:02.438Z,8.5
2023-04-24T08:35:02.650Z,8.3
2023-04-24T08:40:02.827Z,8.5
2023-04-24T08:45:02.140Z,8.1
2023-04-24T08:50:02.314Z,7.9
2023-04-24T08:55:02.498Z,7.6
2023-04-24T09:00:02.696Z,7.5
2023-04-24T09:05:02.949Z,7.4
2023-04-24T09:10:02.213Z,7.0
2023-04-24T09:15:02.422Z,7.4
2023-04-24T09:20:02.575Z,7.5
2023-04-24T09:25:02.779Z,7.5
2023-04-24T09:30:03.106Z,7.4
2023-04-24T09:35:02.277Z,7.5
2023-04-24T09:40:02.402Z,7.9
2023-04-24T09:50:02.554Z,7.5
2023-04-24T09:55:02.722Z,7.9
2023-04-24T10:00:02.845Z,7.4
2023-04-24T10:05:03.125Z,7.5
2023-04-24T10:10:02.408Z,7.6
2023-04-24T10:15:02.567Z,7.1
2023-04-24T10:20:02.801Z,7.6
2023-04-24T10:25:02.967Z,7.4
2023-04-24T10:30:02.142Z,7.1
2023-04-24T10:35:02.291Z,7.4
2023-04-24T10:40:02.499Z,7.6
2023-04-24T10:45:02.769Z,7.9
2023-04-24T10:50:02.933Z,8.1
2023-04-24T10:55:02.103Z,8.1
2023-04-24T11:00:02.310Z,8.0
2023-04-24T11:05:02.618Z,8.5
2023-04-24T11:10:02.829Z,9.1
2023-04-24T11:15:03.651Z,9.1
2023-04-24T11:20:26.864Z,8.6
2023-04-24T11:25:02.770Z,8.6
2023-04-24T11:30:03.239Z,8.0
2023-04-24T11:35:02.837Z,8.0
2023-04-24T11:40:03.285Z,8.5
2023-04-24T11:45:03.085Z,9.8
2023-04-24T11:50:03.181Z,9.8
2023-04-24T11:55:02.792Z,10.6
2023-04-24T12:00:02.358Z,10.0
2023-04-24T12:05:03.208Z,10.0
2023-04-24T12:10:03.126Z,10.6
2023-04-24T12:15:02.861Z,10.6
2023-04-24T12:20:02.221Z,10.1
2023-04-24T12:25:02.363Z,10.1
2023-04-24T12:30:02.570Z,10.0
2023-04-24T12:35:02.795Z,11.3
2023-04-24T12:40:06.852Z,10.5
2023-04-24T12:45:05.191Z,10.3
2023-04-24T12:50:02.409Z,10.3
2023-04-24T12:55:02.539Z,10.3
2023-04-24T13:00:02.765Z,10.3
2023-04-24T13:05:02.975Z,9.6
2023-04-24T13:10:02.430Z,9.6
2023-04-24T13:15:02.624Z,9.5
2023-04-24T13:20:02.707Z,9.3
2023-04-24T13:25:03.050Z,9.3
2023-04-24T13:30:02.328Z,9.0
2023-04-24T13:35:02.577Z,8.6
2023-04-24T13:40:02.814Z,8.5
2023-04-24T13:45:11.078Z,8.5
2023-04-24T13:50:03.016Z,8.5
2023-04-24T13:55:02.142Z,8.5
2023-04-24T14:00:02.484Z,8.6
2023-04-24T14:05:02.779Z,9.3
2023-04-24T14:10:02.209Z,9.6
2023-04-24T14:15:02.514Z,10.0
2023-04-24T14:20:02.775Z,10.0
2023-04-24T14:25:02.967Z,10.5
2023-04-24T14:30:02.251Z,10.5
2023-04-24T14:35:02.462Z,10.1
2023-04-24T14:40:29.418Z,10.1
2023-04-24T14:45:03.102Z,10.1
2023-04-24T14:50:02.273Z,10.1
2023-04-24T14:55:02.449Z,10.0
2023-04-24T15:00:02.614Z,10.0
2023-04-24T15:05:02.983Z,10.5
2023-04-24T15:10:02.218Z,10.5
2023-04-24T15:15:02.413Z,10.6
2023-04-24T15:20:02.686Z,10.6
2023-04-24T15:25:02.867Z,11.8
2023-04-24T15:30:03.004Z,11.8
2023-04-24T15:35:08.361Z,11.6
2023-04-24T15:40:02.168Z,11.6
2023-04-24T15:45:02.278Z,10.5
2023-04-24T15:50:02.405Z,10.5
2023-04-24T15:55:03.481Z,10.5
2023-04-24T16:00:02.705Z,10.1
2023-04-24T16:05:03.006Z,10.1
2023-04-24T16:10:02.400Z,10.3
2023-04-24T16:15:02.898Z,10.3
2023-04-24T16:20:03.041Z,10.0
2023-04-24T16:25:02.176Z,10.0
2023-04-24T16:30:02.364Z,10.5
2023-04-24T16:35:02.623Z,10.5
2023-04-24T16:40:02.949Z,10.5
2023-04-24T16:45:02.150Z,10.5
2023-04-24T16:50:02.661Z,11.3
2023-04-24T16:55:02.801Z,11.3
2023-04-24T17:00:03.060Z,12.0
2023-04-24T17:05:02.631Z,12.0
2023-04-24T17:10:02.217Z,10.3
2023-04-24T17:15:02.374Z,10.3
2023-04-24T17:20:11.562Z,10.6
2023-04-24T17:25:02.243Z,10.6
2023-04-24T17:30:02.382Z,9.6
2023-04-24T17:35:02.612Z,9.6
2023-04-24T17:40:02.759Z,9.8
2023-04-24T17:45:02.974Z,9.8
2023-04-24T17:50:02.076Z,9.1
2023-04-24T17:55:02.265Z,9.1
2023-04-24T18:00:02.353Z,9.1
2023-04-24T18:05:02.651Z,9.1
2023-04-24T18:10:02.810Z,9.3
2023-04-24T18:15:13.642Z,9.3
2023-04-24T18:20:02.757Z,8.8
2023-04-24T18:25:03.025Z,8.8
2023-04-24T18:30:02.416Z,8.5
2023-04-24T18:35:02.691Z,8.5
2023-04-24T18:40:03.050Z,8.0
2023-04-24T18:45:02.287Z,8.0
2023-04-24T18:50:02.491Z,7.6
2023-04-24T18:55:02.637Z,7.6
2023-04-24T19:00:02.872Z,7.4
2023-04-24T19:05:03.010Z,7.4
2023-04-24T19:10:02.191Z,7.1
2023-04-24T19:15:02.318Z,7.0
2023-04-24T19:20:02.801Z,7.0
2023-04-24T19:25:03.428Z,7.0
2023-04-24T19:30:02.738Z,7.0
2023-04-24T19:35:03.046Z,6.9
2023-04-24T19:40:02.225Z,6.9
2023-04-24T19:45:02.362Z,6.5
2023-04-24T19:50:02.508Z,6.5
2023-04-24T19:55:02.727Z,6.6
2023-04-24T20:00:02.933Z,6.5
2023-04-24T20:05:03.279Z,6.5
2023-04-24T20:10:02.528Z,6.5
2023-04-24T20:15:02.786Z,6.5
2023-04-24T20:20:03.018Z,6.6
2023-04-24T20:25:02.230Z,6.6
2023-04-24T20:30:03.005Z,6.5
2023-04-24T20:35:02.146Z,6.5
2023-04-24T20:40:02.332Z,6.4
2023-04-24T20:45:02.625Z,6.4
2023-04-24T20:50:02.752Z,6.5
2023-04-24T20:55:02.929Z,6.5
2023-04-24T21:00:02.127Z,6.4
2023-04-24T21:05:15.120Z,6.4
2023-04-24T21:10:08.142Z,6.1
2023-04-24T21:15:08.197Z,6.1
2023-04-24T21:20:08.492Z,6.0
2023-04-24T21:25:08.575Z,6.0
2023-04-24T21:30:08.729Z,5.9
2023-04-24T21:35:08.844Z,5.9
2023-04-24T21:40:08.925Z,5.8
2023-04-24T21:45:09.004Z,5.8
2023-04-24T21:50:08.088Z,5.5
2023-04-24T21:55:09.792Z,5.5
2023-04-24T22:00:08.838Z,5.5
2023-04-24T22:05:08.840Z,5.5
2023-04-24T22:10:08.896Z,5.5
2023-04-24T22:15:08.958Z,5.5
2023-04-24T22:20:08.027Z,5.5
2023-04-24T22:25:08.128Z,5.5
2023-04-24T22:30:08.140Z,5.4
2023-04-24T22:35:08.162Z,5.4
2023-04-24T22:40:08.276Z,5.4
2023-04-24T22:45:08.295Z,5.4
2023-04-24T22:50:08.348Z,5.4
2023-04-24T22:55:08.390Z,5.4
2023-04-24T23:01:14.491Z,5.3
2023-04-24T23:05:08.531Z,5.3
2023-04-24T23:10:08.305Z,5.5
2023-04-24T23:15:08.315Z,5.5
2023-04-24T23:20:08.395Z,5.8
2023-04-24T23:25:08.445Z,5.8
2023-04-24T23:30:08.537Z,5.9
2023-04-24T23:35:08.619Z,6.0
2023-04-24T23:40:08.681Z,6.0
2023-04-24T23:45:08.672Z,6.1
2023-04-24T23:50:08.719Z,6.1
2023-04-24T23:55:08.774Z,6.1
